»·PEaware :: N5303T KSBA-KOXR

N5303T :: KSBA-KOXR

FLIGHT INFORMATION

Flight Status: Arrived
Operator: Privately registered:
United States
More flights under this callsign
Pilot: Ryan M. (31184)
Aircraft: CESSNA 172 SKYHAWK
(C172)
More flights by this aircraft type
Origin: KSBA Santa Barbara Mun
United States
Destination: KOXR Oxnard
United States
More flights between these airports :: More routes between these airports
Route: KWANG CMA
File this flight plan on PilotEdge
Remarks:
Altitude:
(Current/Filed)
3,000ft
Speed:
(Current/Filed)
106kts
Departed: 22-Jan-21 08:38 PM
Arrived: 22-Jan-21 09:02 PM
Distance/Time
Traveled:
39nm/0:24
Distance/Time
To Go:
Arrived

Flight Plot

Page will automatically refresh every two minutes.


Map Options




Map Legend


Flown Route
Filed Route
Departure Airport
Arrival Airport
Navaid (VOR, NDB)
Fix

Horizontal Profiles

Position Reports

Time Latitude Longitude Heading Altitude Ground
Speed
22-Jan-21 20:06 34.422664 -119.835593 340 10ft 0kts
22-Jan-21 20:07 34.422664 -119.835593 340 10ft 0kts
22-Jan-21 20:08 34.422664 -119.835593 340 10ft 0kts
22-Jan-21 20:09 34.422664 -119.835593 340 10ft 0kts
22-Jan-21 20:10 34.422664 -119.835593 340 10ft 0kts
22-Jan-21 20:11 34.422664 -119.835593 340 10ft 0kts
22-Jan-21 20:11 34.422664 -119.835593 340 10ft 0kts
22-Jan-21 20:12 34.422664 -119.835593 340 10ft 0kts
22-Jan-21 20:14 34.422664 -119.835593 340 10ft 0kts
22-Jan-21 20:14 34.422664 -119.835593 340 10ft 0kts
22-Jan-21 20:15 34.422664 -119.835593 340 10ft 0kts
22-Jan-21 20:16 34.422664 -119.835593 340 10ft 0kts
22-Jan-21 20:17 34.422664 -119.835593 340 10ft 0kts
22-Jan-21 20:18 34.422664 -119.835593 340 10ft 0kts
22-Jan-21 20:19 34.422664 -119.835593 340 10ft 0kts
22-Jan-21 20:20 34.422664 -119.835593 340 10ft 0kts
22-Jan-21 20:21 34.422664 -119.835593 340 10ft 0kts
22-Jan-21 20:22 34.422664 -119.835593 340 10ft 0kts
22-Jan-21 20:23 34.422664 -119.835593 340 10ft 0kts
22-Jan-21 20:24 34.422664 -119.835593 340 10ft 0kts
22-Jan-21 20:25 34.422664 -119.835593 340 10ft 0kts
22-Jan-21 20:26 34.422664 -119.835593 340 10ft 0kts
22-Jan-21 20:27 34.422737 -119.835559 34 10ft 0kts
22-Jan-21 20:28 34.422737 -119.835559 34 10ft 0kts
22-Jan-21 20:29 34.422737 -119.835559 34 10ft 0kts
22-Jan-21 20:30 34.422737 -119.835559 34 10ft 0kts
22-Jan-21 20:31 34.423815 -119.835464 347 10ft 18kts
22-Jan-21 20:32 34.425629 -119.838012 346 12ft 18kts
22-Jan-21 20:33 34.427005 -119.834681 6 10ft 0kts
22-Jan-21 20:34 34.427004 -119.834681 6 10ft 0kts
22-Jan-21 20:35 34.427908 -119.835117 275 10ft 0kts
22-Jan-21 20:36 34.427908 -119.835118 274 10ft 0kts
22-Jan-21 20:37 34.427316 -119.857038 267 813ft 74kts
22-Jan-21 20:38 34.425117 -119.884373 267 1964ft 74kts
22-Jan-21 20:39 34.406578 -119.892191 164 2966ft 94kts
22-Jan-21 20:40 34.370576 -119.877072 161 3001ft 127kts
22-Jan-21 20:41 34.349123 -119.840030 116 3002ft 119kts
22-Jan-21 20:42 34.331730 -119.803406 116 3003ft 114kts
22-Jan-21 20:43 34.313969 -119.765984 116 3004ft 115kts
22-Jan-21 20:44 34.295755 -119.727465 116 3003ft 115kts
22-Jan-21 20:45 34.278850 -119.687615 110 3002ft 117kts
22-Jan-21 20:46 34.264289 -119.645270 102 3001ft 118kts
22-Jan-21 20:47 34.255218 -119.600317 95 2999ft 121kts
22-Jan-21 20:48 34.249216 -119.553594 95 2998ft 124kts
22-Jan-21 20:49 34.244305 -119.505516 95 2996ft 127kts
22-Jan-21 20:50 34.239999 -119.457119 95 2996ft 128kts
22-Jan-21 20:51 34.236624 -119.407840 93 2997ft 131kts
22-Jan-21 20:52 34.233611 -119.358083 93 2997ft 132kts
22-Jan-21 20:53 34.230697 -119.308604 93 2992ft 131kts
22-Jan-21 20:54 34.227904 -119.260311 93 2992ft 125kts
22-Jan-21 20:55 34.225275 -119.214516 93 2995ft 122kts
22-Jan-21 20:56 34.222707 -119.169301 93 2998ft 121kts
22-Jan-21 20:57 34.221827 -119.127194 85 2570ft 108kts
22-Jan-21 20:58 34.224483 -119.088725 84 1516ft 105kts
22-Jan-21 20:59 34.222000 -119.055943 178 680ft 77kts
22-Jan-21 21:00 34.213543 -119.073083 270 299ft 57kts
22-Jan-21 21:01 34.213711 -119.089416 265 71ft 18kts
22-Jan-21 21:02 34.210885 -119.089849 212 69ft 8kts
22-Jan-21 21:03 34.210596 -119.090068 190 69ft 0kts
22-Jan-21 21:04 34.210596 -119.090068 190 69ft 0kts

Navigation Log

Ident Type
Flight plan parsing failed, navigation log unavailable